sensor_id;sensor_type;location;lat;lon;timestamp;P1;durP1;ratioP1;P2;durP2;ratioP2
61897;SDS011;47850;50.274;18.908;2023-04-16T00:02:08;36.00;;;21.10;;
61897;SDS011;47850;50.274;18.908;2023-04-16T00:04:36;42.80;;;23.30;;
61897;SDS011;47850;50.274;18.908;2023-04-16T00:07:04;42.70;;;22.70;;
61897;SDS011;47850;50.274;18.908;2023-04-16T00:09:32;42.20;;;24.20;;
61897;SDS011;47850;50.274;18.908;2023-04-16T00:12:00;45.80;;;24.40;;
61897;SDS011;47850;50.274;18.908;2023-04-16T00:14:28;44.00;;;24.30;;
61897;SDS011;47850;50.274;18.908;2023-04-16T00:16:56;38.40;;;21.60;;
61897;SDS011;47850;50.274;18.908;2023-04-16T00:19:24;40.70;;;23.60;;
61897;SDS011;47850;50.274;18.908;2023-04-16T00:21:52;38.80;;;21.00;;
61897;SDS011;47850;50.274;18.908;2023-04-16T00:24:20;37.70;;;20.10;;
61897;SDS011;47850;50.274;18.908;2023-04-16T00:26:47;32.70;;;17.90;;
61897;SDS011;47850;50.274;18.908;2023-04-16T00:29:15;32.90;;;19.20;;
61897;SDS011;47850;50.274;18.908;2023-04-16T00:31:43;29.20;;;16.60;;
61897;SDS011;47850;50.274;18.908;2023-04-16T00:34:11;20.60;;;12.40;;
61897;SDS011;47850;50.274;18.908;2023-04-16T00:36:38;20.00;;;12.50;;
61897;SDS011;47850;50.274;18.908;2023-04-16T00:39:06;19.30;;;11.90;;
61897;SDS011;47850;50.274;18.908;2023-04-16T00:41:34;18.80;;;12.30;;
61897;SDS011;47850;50.274;18.908;2023-04-16T00:44:02;21.80;;;13.40;;
61897;SDS011;47850;50.274;18.908;2023-04-16T00:46:29;24.70;;;14.80;;
61897;SDS011;47850;50.274;18.908;2023-04-16T00:48:59;27.20;;;16.10;;
61897;SDS011;47850;50.274;18.908;2023-04-16T00:51:27;29.30;;;16.80;;
61897;SDS011;47850;50.274;18.908;2023-04-16T00:53:56;29.30;;;16.10;;
61897;SDS011;47850;50.274;18.908;2023-04-16T00:56:24;29.80;;;16.50;;
61897;SDS011;47850;50.274;18.908;2023-04-16T00:58:56;24.10;;;14.40;;
61897;SDS011;47850;50.274;18.908;2023-04-16T01:01:25;31.10;;;15.60;;
61897;SDS011;47850;50.274;18.908;2023-04-16T01:03:53;28.30;;;15.80;;
61897;SDS011;47850;50.274;18.908;2023-04-16T01:06:21;29.60;;;16.00;;
61897;SDS011;47850;50.274;18.908;2023-04-16T01:08:49;30.10;;;17.10;;
61897;SDS011;47850;50.274;18.908;2023-04-16T01:11:16;30.50;;;18.00;;
61897;SDS011;47850;50.274;18.908;2023-04-16T01:13:44;30.90;;;16.60;;
61897;SDS011;47850;50.274;18.908;2023-04-16T01:16:12;24.20;;;14.20;;
61897;SDS011;47850;50.274;18.908;2023-04-16T01:18:40;36.00;;;20.40;;
61897;SDS011;47850;50.274;18.908;2023-04-16T01:21:07;43.00;;;23.50;;
61897;SDS011;47850;50.274;18.908;2023-04-16T01:23:35;34.50;;;19.00;;
61897;SDS011;47850;50.274;18.908;2023-04-16T01:26:03;37.50;;;21.60;;
61897;SDS011;47850;50.274;18.908;2023-04-16T01:28:31;45.50;;;22.10;;
61897;SDS011;47850;50.274;18.908;2023-04-16T01:30:59;41.00;;;21.90;;
61897;SDS011;47850;50.274;18.908;2023-04-16T01:33:27;39.40;;;18.60;;
61897;SDS011;47850;50.274;18.908;2023-04-16T01:35:55;40.60;;;22.10;;
61897;SDS011;47850;50.274;18.908;2023-04-16T01:38:22;49.20;;;22.30;;
61897;SDS011;47850;50.274;18.908;2023-04-16T01:40:54;39.00;;;21.00;;
61897;SDS011;47850;50.274;18.908;2023-04-16T01:43:23;43.30;;;21.70;;
61897;SDS011;47850;50.274;18.908;2023-04-16T01:45:53;40.50;;;20.80;;
61897;SDS011;47850;50.274;18.908;2023-04-16T01:48:37;44.90;;;20.70;;
61897;SDS011;47850;50.274;18.908;2023-04-16T01:51:05;51.70;;;22.40;;
61897;SDS011;47850;50.274;18.908;2023-04-16T01:53:33;63.90;;;22.30;;
61897;SDS011;47850;50.274;18.908;2023-04-16T01:56:00;36.20;;;18.00;;
61897;SDS011;47850;50.274;18.908;2023-04-16T01:58:28;52.10;;;22.10;;
61897;SDS011;47850;50.274;18.908;2023-04-16T02:00:57;77.20;;;24.00;;
61897;SDS011;47850;50.274;18.908;2023-04-16T02:03:25;57.50;;;23.90;;
61897;SDS011;47850;50.274;18.908;2023-04-16T02:05:53;42.50;;;20.90;;
61897;SDS011;47850;50.274;18.908;2023-04-16T02:08:21;57.90;;;22.40;;
61897;SDS011;47850;50.274;18.908;2023-04-16T02:10:49;34.60;;;19.00;;
61897;SDS011;47850;50.274;18.908;2023-04-16T02:13:17;46.60;;;21.80;;
61897;SDS011;47850;50.274;18.908;2023-04-16T02:15:45;58.80;;;22.90;;
61897;SDS011;47850;50.274;18.908;2023-04-16T02:18:14;36.90;;;19.00;;
61897;SDS011;47850;50.274;18.908;2023-04-16T02:20:45;59.40;;;23.20;;
61897;SDS011;47850;50.274;18.908;2023-04-16T02:23:14;57.70;;;22.80;;
61897;SDS011;47850;50.274;18.908;2023-04-16T02:25:46;57.00;;;21.80;;
61897;SDS011;47850;50.274;18.908;2023-04-16T02:28:16;52.10;;;20.80;;
61897;SDS011;47850;50.274;18.908;2023-04-16T02:30:44;53.50;;;21.00;;
61897;SDS011;47850;50.274;18.908;2023-04-16T02:33:12;46.30;;;22.60;;
61897;SDS011;47850;50.274;18.908;2023-04-16T02:35:40;55.50;;;24.00;;
61897;SDS011;47850;50.274;18.908;2023-04-16T02:38:08;143.50;;;25.30;;
61897;SDS011;47850;50.274;18.908;2023-04-16T02:40:35;98.60;;;21.20;;
61897;SDS011;47850;50.274;18.908;2023-04-16T02:43:03;59.70;;;23.90;;
61897;SDS011;47850;50.274;18.908;2023-04-16T02:45:31;67.10;;;25.00;;
61897;SDS011;47850;50.274;18.908;2023-04-16T02:47:59;62.80;;;23.90;;
61897;SDS011;47850;50.274;18.908;2023-04-16T02:50:27;76.40;;;25.00;;
61897;SDS011;47850;50.274;18.908;2023-04-16T02:52:54;105.60;;;22.60;;
61897;SDS011;47850;50.274;18.908;2023-04-16T02:55:22;91.20;;;22.20;;
61897;SDS011;47850;50.274;18.908;2023-04-16T02:57:50;123.80;;;26.30;;
61897;SDS011;47850;50.274;18.908;2023-04-16T03:00:19;69.30;;;20.00;;
61897;SDS011;47850;50.274;18.908;2023-04-16T03:02:47;53.80;;;18.30;;
61897;SDS011;47850;50.274;18.908;2023-04-16T03:05:14;77.50;;;20.80;;
61897;SDS011;47850;50.274;18.908;2023-04-16T03:07:42;52.60;;;16.20;;
61897;SDS011;47850;50.274;18.908;2023-04-16T03:10:10;78.60;;;21.80;;
61897;SDS011;47850;50.274;18.908;2023-04-16T03:12:38;76.20;;;20.40;;
61897;SDS011;47850;50.274;18.908;2023-04-16T03:15:06;79.40;;;18.40;;
61897;SDS011;47850;50.274;18.908;2023-04-16T03:17:34;58.00;;;20.30;;
61897;SDS011;47850;50.274;18.908;2023-04-16T03:20:02;61.60;;;19.90;;
61897;SDS011;47850;50.274;18.908;2023-04-16T03:22:30;47.40;;;18.10;;
61897;SDS011;47850;50.274;18.908;2023-04-16T03:24:58;56.50;;;17.80;;
61897;SDS011;47850;50.274;18.908;2023-04-16T03:27:25;49.50;;;18.00;;
61897;SDS011;47850;50.274;18.908;2023-04-16T03:29:53;35.20;;;15.30;;
61897;SDS011;47850;50.274;18.908;2023-04-16T03:32:21;37.70;;;16.70;;
61897;SDS011;47850;50.274;18.908;2023-04-16T03:34:49;34.40;;;14.30;;
61897;SDS011;47850;50.274;18.908;2023-04-16T03:37:17;34.00;;;17.20;;
61897;SDS011;47850;50.274;18.908;2023-04-16T03:39:45;33.80;;;16.70;;
61897;SDS011;47850;50.274;18.908;2023-04-16T03:42:14;44.10;;;19.40;;
61897;SDS011;47850;50.274;18.908;2023-04-16T03:44:42;37.40;;;17.70;;
61897;SDS011;47850;50.274;18.908;2023-04-16T03:47:12;52.10;;;19.20;;
61897;SDS011;47850;50.274;18.908;2023-04-16T03:49:40;54.70;;;18.30;;
61897;SDS011;47850;50.274;18.908;2023-04-16T03:52:08;38.50;;;16.80;;
61897;SDS011;47850;50.274;18.908;2023-04-16T03:54:37;35.60;;;17.00;;
61897;SDS011;47850;50.274;18.908;2023-04-16T03:57:05;29.30;;;15.30;;
61897;SDS011;47850;50.274;18.908;2023-04-16T03:59:33;30.70;;;15.80;;
61897;SDS011;47850;50.274;18.908;2023-04-16T04:02:00;36.70;;;15.60;;
61897;SDS011;47850;50.274;18.908;2023-04-16T04:04:28;56.90;;;19.50;;
61897;SDS011;47850;50.274;18.908;2023-04-16T04:06:56;63.90;;;19.80;;
61897;SDS011;47850;50.274;18.908;2023-04-16T04:09:23;44.10;;;17.80;;
61897;SDS011;47850;50.274;18.908;2023-04-16T04:11:51;39.20;;;16.90;;
61897;SDS011;47850;50.274;18.908;2023-04-16T04:14:19;38.60;;;16.70;;
61897;SDS011;47850;50.274;18.908;2023-04-16T04:16:47;52.70;;;20.00;;
61897;SDS011;47850;50.274;18.908;2023-04-16T04:19:14;78.40;;;19.40;;
61897;SDS011;47850;50.274;18.908;2023-04-16T04:21:42;76.90;;;19.70;;
61897;SDS011;47850;50.274;18.908;2023-04-16T04:24:10;31.50;;;13.70;;
61897;SDS011;47850;50.274;18.908;2023-04-16T04:26:38;35.10;;;14.30;;
61897;SDS011;47850;50.274;18.908;2023-04-16T04:29:05;38.10;;;14.80;;
61897;SDS011;47850;50.274;18.908;2023-04-16T04:31:33;38.50;;;12.10;;
61897;SDS011;47850;50.274;18.908;2023-04-16T04:34:01;22.70;;;11.40;;
61897;SDS011;47850;50.274;18.908;2023-04-16T04:36:29;28.80;;;12.20;;
61897;SDS011;47850;50.274;18.908;2023-04-16T04:38:57;22.00;;;11.40;;
61897;SDS011;47850;50.274;18.908;2023-04-16T04:41:25;28.40;;;12.20;;
61897;SDS011;47850;50.274;18.908;2023-04-16T04:43:53;27.20;;;12.40;;
61897;SDS011;47850;50.274;18.908;2023-04-16T04:46:21;21.70;;;11.50;;
61897;SDS011;47850;50.274;18.908;2023-04-16T04:48:48;51.90;;;17.70;;
61897;SDS011;47850;50.274;18.908;2023-04-16T04:51:16;36.20;;;13.40;;
61897;SDS011;47850;50.274;18.908;2023-04-16T04:53:44;32.20;;;13.60;;
61897;SDS011;47850;50.274;18.908;2023-04-16T04:56:12;41.80;;;15.40;;
61897;SDS011;47850;50.274;18.908;2023-04-16T04:58:40;35.60;;;13.30;;
61897;SDS011;47850;50.274;18.908;2023-04-16T05:01:08;24.00;;;12.20;;
61897;SDS011;47850;50.274;18.908;2023-04-16T05:03:36;32.30;;;13.40;;
61897;SDS011;47850;50.274;18.908;2023-04-16T05:06:05;27.60;;;14.00;;
61897;SDS011;47850;50.274;18.908;2023-04-16T05:08:33;34.60;;;16.00;;
61897;SDS011;47850;50.274;18.908;2023-04-16T05:11:01;38.40;;;15.60;;
61897;SDS011;47850;50.274;18.908;2023-04-16T05:13:29;30.10;;;15.70;;
61897;SDS011;47850;50.274;18.908;2023-04-16T05:15:58;35.10;;;17.40;;
61897;SDS011;47850;50.274;18.908;2023-04-16T05:18:26;29.80;;;13.50;;
61897;SDS011;47850;50.274;18.908;2023-04-16T05:20:54;34.90;;;14.90;;
61897;SDS011;47850;50.274;18.908;2023-04-16T05:23:22;38.30;;;15.30;;
61897;SDS011;47850;50.274;18.908;2023-04-16T05:25:50;28.50;;;15.50;;
61897;SDS011;47850;50.274;18.908;2023-04-16T05:28:17;38.80;;;18.70;;
61897;SDS011;47850;50.274;18.908;2023-04-16T05:30:45;31.70;;;15.00;;
61897;SDS011;47850;50.274;18.908;2023-04-16T05:33:13;44.40;;;18.60;;
61897;SDS011;47850;50.274;18.908;2023-04-16T05:35:40;26.40;;;13.40;;
61897;SDS011;47850;50.274;18.908;2023-04-16T05:38:08;33.80;;;18.20;;
61897;SDS011;47850;50.274;18.908;2023-04-16T05:40:36;33.90;;;16.50;;
61897;SDS011;47850;50.274;18.908;2023-04-16T05:43:04;31.30;;;18.30;;
61897;SDS011;47850;50.274;18.908;2023-04-16T05:45:32;29.00;;;16.90;;
61897;SDS011;47850;50.274;18.908;2023-04-16T05:48:06;28.90;;;15.80;;
61897;SDS011;47850;50.274;18.908;2023-04-16T05:50:35;28.80;;;14.80;;
61897;SDS011;47850;50.274;18.908;2023-04-16T05:53:04;35.50;;;18.50;;
61897;SDS011;47850;50.274;18.908;2023-04-16T05:55:34;36.50;;;15.60;;
61897;SDS011;47850;50.274;18.908;2023-04-16T05:58:03;23.80;;;14.30;;
61897;SDS011;47850;50.274;18.908;2023-04-16T06:00:31;25.40;;;14.60;;
61897;SDS011;47850;50.274;18.908;2023-04-16T06:02:59;26.70;;;14.30;;
61897;SDS011;47850;50.274;18.908;2023-04-16T06:05:28;26.80;;;16.70;;
61897;SDS011;47850;50.274;18.908;2023-04-16T06:07:56;22.50;;;14.20;;
61897;SDS011;47850;50.274;18.908;2023-04-16T06:10:24;26.40;;;17.30;;
61897;SDS011;47850;50.274;18.908;2023-04-16T06:12:52;31.90;;;21.60;;
61897;SDS011;47850;50.274;18.908;2023-04-16T06:15:20;30.80;;;19.20;;
61897;SDS011;47850;50.274;18.908;2023-04-16T06:17:48;23.80;;;15.50;;
61897;SDS011;47850;50.274;18.908;2023-04-16T06:20:17;24.30;;;15.00;;
61897;SDS011;47850;50.274;18.908;2023-04-16T06:22:45;24.60;;;16.30;;
61897;SDS011;47850;50.274;18.908;2023-04-16T06:25:12;30.80;;;21.10;;
61897;SDS011;47850;50.274;18.908;2023-04-16T06:27:40;29.50;;;18.90;;
61897;SDS011;47850;50.274;18.908;2023-04-16T06:30:11;29.30;;;19.00;;
61897;SDS011;47850;50.274;18.908;2023-04-16T06:32:40;31.30;;;18.80;;
61897;SDS011;47850;50.274;18.908;2023-04-16T06:35:08;24.40;;;15.40;;
61897;SDS011;47850;50.274;18.908;2023-04-16T06:37:36;29.20;;;18.60;;
61897;SDS011;47850;50.274;18.908;2023-04-16T06:40:05;35.30;;;20.50;;
61897;SDS011;47850;50.274;18.908;2023-04-16T06:42:33;33.00;;;19.90;;
61897;SDS011;47850;50.274;18.908;2023-04-16T06:45:01;32.90;;;22.30;;
61897;SDS011;47850;50.274;18.908;2023-04-16T06:47:29;32.10;;;19.70;;
61897;SDS011;47850;50.274;18.908;2023-04-16T06:49:57;28.10;;;18.00;;
61897;SDS011;47850;50.274;18.908;2023-04-16T06:52:24;31.00;;;16.30;;
61897;SDS011;47850;50.274;18.908;2023-04-16T06:54:52;23.90;;;16.40;;
61897;SDS011;47850;50.274;18.908;2023-04-16T06:57:20;24.30;;;15.70;;
61897;SDS011;47850;50.274;18.908;2023-04-16T06:59:47;22.30;;;15.20;;
61897;SDS011;47850;50.274;18.908;2023-04-16T07:02:15;23.20;;;15.90;;
61897;SDS011;47850;50.274;18.908;2023-04-16T07:04:43;21.50;;;13.40;;
61897;SDS011;47850;50.274;18.908;2023-04-16T07:07:11;27.50;;;17.50;;
61897;SDS011;47850;50.274;18.908;2023-04-16T07:09:39;22.30;;;15.50;;
61897;SDS011;47850;50.274;18.908;2023-04-16T07:12:06;24.90;;;15.00;;
61897;SDS011;47850;50.274;18.908;2023-04-16T07:14:34;20.60;;;13.60;;
61897;SDS011;47850;50.274;18.908;2023-04-16T07:17:02;23.80;;;14.30;;
61897;SDS011;47850;50.274;18.908;2023-04-16T07:19:30;23.60;;;15.10;;
61897;SDS011;47850;50.274;18.908;2023-04-16T07:21:59;23.20;;;15.00;;
61897;SDS011;47850;50.274;18.908;2023-04-16T07:24:27;21.50;;;13.50;;
61897;SDS011;47850;50.274;18.908;2023-04-16T07:26:54;20.00;;;13.50;;
61897;SDS011;47850;50.274;18.908;2023-04-16T07:29:22;18.90;;;12.40;;
61897;SDS011;47850;50.274;18.908;2023-04-16T07:31:50;23.00;;;13.50;;
61897;SDS011;47850;50.274;18.908;2023-04-16T07:34:18;18.40;;;12.70;;
61897;SDS011;47850;50.274;18.908;2023-04-16T07:36:46;19.30;;;13.70;;
61897;SDS011;47850;50.274;18.908;2023-04-16T07:39:13;18.40;;;13.10;;
61897;SDS011;47850;50.274;18.908;2023-04-16T07:41:41;21.00;;;13.20;;
61897;SDS011;47850;50.274;18.908;2023-04-16T07:44:09;17.80;;;11.80;;
61897;SDS011;47850;50.274;18.908;2023-04-16T07:46:37;15.80;;;10.70;;
61897;SDS011;47850;50.274;18.908;2023-04-16T07:49:05;15.60;;;11.70;;
61897;SDS011;47850;50.274;18.908;2023-04-16T07:51:33;17.40;;;12.30;;
61897;SDS011;47850;50.274;18.908;2023-04-16T07:54:01;12.50;;;9.50;;
61897;SDS011;47850;50.274;18.908;2023-04-16T07:56:29;17.40;;;12.70;;
61897;SDS011;47850;50.274;18.908;2023-04-16T07:58:57;16.20;;;11.70;;
61897;SDS011;47850;50.274;18.908;2023-04-16T08:01:24;15.80;;;9.50;;
61897;SDS011;47850;50.274;18.908;2023-04-16T08:03:53;13.00;;;8.90;;
61897;SDS011;47850;50.274;18.908;2023-04-16T08:06:23;13.90;;;9.10;;
61897;SDS011;47850;50.274;18.908;2023-04-16T08:08:53;13.60;;;9.60;;
61897;SDS011;47850;50.274;18.908;2023-04-16T08:11:20;13.30;;;9.10;;
61897;SDS011;47850;50.274;18.908;2023-04-16T08:13:48;12.90;;;8.70;;
61897;SDS011;47850;50.274;18.908;2023-04-16T08:16:16;12.10;;;8.90;;
61897;SDS011;47850;50.274;18.908;2023-04-16T08:18:44;12.40;;;8.50;;
61897;SDS011;47850;50.274;18.908;2023-04-16T08:21:11;14.70;;;9.30;;
61897;SDS011;47850;50.274;18.908;2023-04-16T08:23:39;10.70;;;7.80;;
61897;SDS011;47850;50.274;18.908;2023-04-16T08:26:07;11.40;;;8.10;;
61897;SDS011;47850;50.274;18.908;2023-04-16T08:28:35;14.60;;;8.50;;
61897;SDS011;47850;50.274;18.908;2023-04-16T08:31:03;11.70;;;8.20;;
61897;SDS011;47850;50.274;18.908;2023-04-16T08:33:30;12.00;;;8.70;;
61897;SDS011;47850;50.274;18.908;2023-04-16T08:35:58;12.90;;;8.30;;
61897;SDS011;47850;50.274;18.908;2023-04-16T08:38:26;10.10;;;7.10;;
61897;SDS011;47850;50.274;18.908;2023-04-16T08:40:54;9.60;;;6.90;;
61897;SDS011;47850;50.274;18.908;2023-04-16T08:43:24;9.90;;;6.90;;
61897;SDS011;47850;50.274;18.908;2023-04-16T08:45:52;9.70;;;6.70;;
61897;SDS011;47850;50.274;18.908;2023-04-16T08:48:23;9.70;;;6.40;;
61897;SDS011;47850;50.274;18.908;2023-04-16T08:50:51;8.30;;;5.80;;
61897;SDS011;47850;50.274;18.908;2023-04-16T08:53:21;10.20;;;6.70;;
61897;SDS011;47850;50.274;18.908;2023-04-16T08:55:54;12.80;;;7.60;;
61897;SDS011;47850;50.274;18.908;2023-04-16T08:58:27;9.50;;;6.90;;
61897;SDS011;47850;50.274;18.908;2023-04-16T09:00:59;9.90;;;7.10;;
61897;SDS011;47850;50.274;18.908;2023-04-16T09:03:30;8.20;;;6.10;;
61897;SDS011;47850;50.274;18.908;2023-04-16T09:05:58;8.60;;;6.70;;
61897;SDS011;47850;50.274;18.908;2023-04-16T09:08:29;7.20;;;5.10;;
61897;SDS011;47850;50.274;18.908;2023-04-16T09:10:58;10.00;;;5.10;;
61897;SDS011;47850;50.274;18.908;2023-04-16T09:13:32;8.70;;;5.70;;
61897;SDS011;47850;50.274;18.908;2023-04-16T09:16:00;9.00;;;5.60;;
61897;SDS011;47850;50.274;18.908;2023-04-16T09:18:29;8.40;;;5.60;;
61897;SDS011;47850;50.274;18.908;2023-04-16T09:20:57;8.40;;;6.20;;
61897;SDS011;47850;50.274;18.908;2023-04-16T09:23:28;7.90;;;5.20;;
61897;SDS011;47850;50.274;18.908;2023-04-16T09:25:57;8.60;;;6.50;;
61897;SDS011;47850;50.274;18.908;2023-04-16T09:28:39;11.20;;;6.50;;
61897;SDS011;47850;50.274;18.908;2023-04-16T09:31:09;8.60;;;5.20;;
61897;SDS011;47850;50.274;18.908;2023-04-16T09:36:08;7.90;;;5.70;;
61897;SDS011;47850;50.274;18.908;2023-04-16T09:38:48;10.60;;;7.60;;
61897;SDS011;47850;50.274;18.908;2023-04-16T09:41:18;9.00;;;6.20;;
61897;SDS011;47850;50.274;18.908;2023-04-16T09:43:57;9.40;;;5.90;;
61897;SDS011;47850;50.274;18.908;2023-04-16T09:46:32;8.40;;;5.70;;
61897;SDS011;47850;50.274;18.908;2023-04-16T09:49:07;8.50;;;5.90;;
61897;SDS011;47850;50.274;18.908;2023-04-16T09:51:37;7.70;;;5.30;;
61897;SDS011;47850;50.274;18.908;2023-04-16T09:54:07;6.90;;;5.10;;
61897;SDS011;47850;50.274;18.908;2023-04-16T09:56:42;8.80;;;4.80;;
61897;SDS011;47850;50.274;18.908;2023-04-16T09:59:19;6.60;;;4.70;;
61897;SDS011;47850;50.274;18.908;2023-04-16T10:01:48;11.10;;;8.00;;
61897;SDS011;47850;50.274;18.908;2023-04-16T10:04:16;9.10;;;5.40;;
61897;SDS011;47850;50.274;18.908;2023-04-16T10:06:46;6.50;;;4.90;;
61897;SDS011;47850;50.274;18.908;2023-04-16T10:09:36;7.00;;;5.20;;
61897;SDS011;47850;50.274;18.908;2023-04-16T10:12:05;6.80;;;5.00;;
61897;SDS011;47850;50.274;18.908;2023-04-16T10:14:33;28.80;;;17.10;;
61897;SDS011;47850;50.274;18.908;2023-04-16T10:17:01;14.20;;;9.70;;
61897;SDS011;47850;50.274;18.908;2023-04-16T10:19:30;9.90;;;7.00;;
61897;SDS011;47850;50.274;18.908;2023-04-16T10:21:59;17.30;;;14.00;;
61897;SDS011;47850;50.274;18.908;2023-04-16T10:24:31;46.40;;;22.50;;
61897;SDS011;47850;50.274;18.908;2023-04-16T10:27:00;34.50;;;22.10;;
61897;SDS011;47850;50.274;18.908;2023-04-16T10:29:29;11.00;;;7.50;;
61897;SDS011;47850;50.274;18.908;2023-04-16T10:31:58;6.20;;;4.70;;
61897;SDS011;47850;50.274;18.908;2023-04-16T10:34:26;6.40;;;4.80;;
61897;SDS011;47850;50.274;18.908;2023-04-16T10:36:55;5.50;;;4.20;;
61897;SDS011;47850;50.274;18.908;2023-04-16T10:39:23;10.40;;;6.60;;
61897;SDS011;47850;50.274;18.908;2023-04-16T10:44:35;18.90;;;14.30;;
61897;SDS011;47850;50.274;18.908;2023-04-16T10:47:10;12.60;;;9.30;;
61897;SDS011;47850;50.274;18.908;2023-04-16T10:49:40;6.60;;;4.90;;
61897;SDS011;47850;50.274;18.908;2023-04-16T10:52:09;5.30;;;4.40;;
61897;SDS011;47850;50.274;18.908;2023-04-16T10:54:39;6.40;;;5.20;;
61897;SDS011;47850;50.274;18.908;2023-04-16T10:57:08;6.10;;;4.50;;
61897;SDS011;47850;50.274;18.908;2023-04-16T10:59:38;6.20;;;4.30;;
61897;SDS011;47850;50.274;18.908;2023-04-16T11:02:12;7.20;;;4.40;;
61897;SDS011;47850;50.274;18.908;2023-04-16T11:04:42;5.50;;;4.10;;
61897;SDS011;47850;50.274;18.908;2023-04-16T11:07:16;4.60;;;3.80;;
61897;SDS011;47850;50.274;18.908;2023-04-16T11:14:53;5.30;;;4.40;;
61897;SDS011;47850;50.274;18.908;2023-04-16T11:17:29;6.70;;;4.30;;
61897;SDS011;47850;50.274;18.908;2023-04-16T11:19:59;13.30;;;8.60;;
61897;SDS011;47850;50.274;18.908;2023-04-16T11:22:27;15.90;;;11.40;;
61897;SDS011;47850;50.274;18.908;2023-04-16T11:24:55;7.00;;;5.20;;
61897;SDS011;47850;50.274;18.908;2023-04-16T11:27:23;6.20;;;4.40;;
61897;SDS011;47850;50.274;18.908;2023-04-16T11:29:58;17.20;;;10.50;;
61897;SDS011;47850;50.274;18.908;2023-04-16T11:32:31;9.90;;;6.00;;
61897;SDS011;47850;50.274;18.908;2023-04-16T11:35:00;16.60;;;11.60;;
61897;SDS011;47850;50.274;18.908;2023-04-16T11:37:31;16.30;;;11.20;;
61897;SDS011;47850;50.274;18.908;2023-04-16T11:40:00;19.40;;;11.60;;
61897;SDS011;47850;50.274;18.908;2023-04-16T11:42:32;13.30;;;7.50;;
61897;SDS011;47850;50.274;18.908;2023-04-16T11:45:03;13.70;;;8.30;;
61897;SDS011;47850;50.274;18.908;2023-04-16T11:47:31;39.80;;;25.80;;
61897;SDS011;47850;50.274;18.908;2023-04-16T11:52:50;11.50;;;8.40;;
61897;SDS011;47850;50.274;18.908;2023-04-16T11:55:19;7.50;;;5.20;;
61897;SDS011;47850;50.274;18.908;2023-04-16T11:57:48;5.70;;;5.00;;
61897;SDS011;47850;50.274;18.908;2023-04-16T12:00:17;5.60;;;3.90;;
61897;SDS011;47850;50.274;18.908;2023-04-16T12:02:49;6.20;;;4.10;;
61897;SDS011;47850;50.274;18.908;2023-04-16T12:05:24;5.50;;;3.60;;
61897;SDS011;47850;50.274;18.908;2023-04-16T12:08:01;5.40;;;3.80;;
61897;SDS011;47850;50.274;18.908;2023-04-16T12:18:21;12.20;;;5.80;;
61897;SDS011;47850;50.274;18.908;2023-04-16T12:20:50;8.60;;;5.80;;
61897;SDS011;47850;50.274;18.908;2023-04-16T12:23:28;7.70;;;4.60;;
61897;SDS011;47850;50.274;18.908;2023-04-16T12:25:57;5.50;;;4.60;;
61897;SDS011;47850;50.274;18.908;2023-04-16T12:28:29;6.80;;;4.40;;
61897;SDS011;47850;50.274;18.908;2023-04-16T12:30:58;8.90;;;5.70;;
61897;SDS011;47850;50.274;18.908;2023-04-16T12:33:27;6.80;;;5.30;;
61897;SDS011;47850;50.274;18.908;2023-04-16T12:35:55;5.60;;;4.70;;
61897;SDS011;47850;50.274;18.908;2023-04-16T12:38:23;6.20;;;4.90;;
61897;SDS011;47850;50.274;18.908;2023-04-16T12:40:52;5.60;;;4.70;;
61897;SDS011;47850;50.274;18.908;2023-04-16T12:43:23;8.40;;;5.10;;
61897;SDS011;47850;50.274;18.908;2023-04-16T12:45:51;5.50;;;4.10;;
61897;SDS011;47850;50.274;18.908;2023-04-16T12:48:19;5.60;;;4.50;;
61897;SDS011;47850;50.274;18.908;2023-04-16T12:50:47;30.60;;;8.40;;
61897;SDS011;47850;50.274;18.908;2023-04-16T12:53:14;6.60;;;4.90;;
61897;SDS011;47850;50.274;18.908;2023-04-16T12:55:42;7.00;;;5.30;;
61897;SDS011;47850;50.274;18.908;2023-04-16T12:58:11;7.80;;;6.10;;
61897;SDS011;47850;50.274;18.908;2023-04-16T13:00:39;12.70;;;9.60;;
61897;SDS011;47850;50.274;18.908;2023-04-16T13:03:07;25.80;;;19.70;;
61897;SDS011;47850;50.274;18.908;2023-04-16T13:05:35;10.90;;;7.80;;
61897;SDS011;47850;50.274;18.908;2023-04-16T13:08:02;6.90;;;5.10;;
61897;SDS011;47850;50.274;18.908;2023-04-16T13:10:30;11.30;;;9.40;;
61897;SDS011;47850;50.274;18.908;2023-04-16T13:12:58;7.90;;;5.20;;
61897;SDS011;47850;50.274;18.908;2023-04-16T13:15:26;10.20;;;4.40;;
61897;SDS011;47850;50.274;18.908;2023-04-16T13:17:53;6.00;;;4.30;;
61897;SDS011;47850;50.274;18.908;2023-04-16T13:20:21;5.80;;;4.00;;
61897;SDS011;47850;50.274;18.908;2023-04-16T13:22:49;6.00;;;4.40;;
61897;SDS011;47850;50.274;18.908;2023-04-16T13:25:18;8.00;;;4.80;;
61897;SDS011;47850;50.274;18.908;2023-04-16T13:27:45;8.10;;;4.70;;
61897;SDS011;47850;50.274;18.908;2023-04-16T13:30:13;4.80;;;3.80;;
61897;SDS011;47850;50.274;18.908;2023-04-16T13:32:42;5.90;;;4.30;;
61897;SDS011;47850;50.274;18.908;2023-04-16T13:35:10;5.60;;;4.20;;
61897;SDS011;47850;50.274;18.908;2023-04-16T13:37:38;4.90;;;3.60;;
61897;SDS011;47850;50.274;18.908;2023-04-16T13:40:07;7.50;;;4.40;;
61897;SDS011;47850;50.274;18.908;2023-04-16T13:42:35;6.40;;;4.80;;
61897;SDS011;47850;50.274;18.908;2023-04-16T13:45:03;9.60;;;7.00;;
61897;SDS011;47850;50.274;18.908;2023-04-16T13:47:31;7.20;;;4.70;;
61897;SDS011;47850;50.274;18.908;2023-04-16T13:49:58;8.00;;;4.40;;
61897;SDS011;47850;50.274;18.908;2023-04-16T13:52:26;5.70;;;4.50;;
61897;SDS011;47850;50.274;18.908;2023-04-16T13:54:54;5.90;;;4.80;;
61897;SDS011;47850;50.274;18.908;2023-04-16T13:57:23;7.30;;;5.00;;
61897;SDS011;47850;50.274;18.908;2023-04-16T13:59:51;6.80;;;5.10;;
61897;SDS011;47850;50.274;18.908;2023-04-16T14:02:19;8.00;;;5.40;;
61897;SDS011;47850;50.274;18.908;2023-04-16T14:04:47;9.40;;;7.60;;
61897;SDS011;47850;50.274;18.908;2023-04-16T14:07:15;11.20;;;8.30;;
61897;SDS011;47850;50.274;18.908;2023-04-16T14:09:43;6.80;;;5.30;;
61897;SDS011;47850;50.274;18.908;2023-04-16T14:12:11;9.60;;;6.80;;
61897;SDS011;47850;50.274;18.908;2023-04-16T14:14:39;7.90;;;5.60;;
61897;SDS011;47850;50.274;18.908;2023-04-16T14:19:36;35.10;;;25.60;;
61897;SDS011;47850;50.274;18.908;2023-04-16T14:22:03;11.80;;;9.40;;
61897;SDS011;47850;50.274;18.908;2023-04-16T14:24:31;11.00;;;9.10;;
61897;SDS011;47850;50.274;18.908;2023-04-16T14:26:59;9.70;;;7.30;;
61897;SDS011;47850;50.274;18.908;2023-04-16T14:29:27;9.90;;;6.60;;
61897;SDS011;47850;50.274;18.908;2023-04-16T14:31:55;10.30;;;6.20;;
61897;SDS011;47850;50.274;18.908;2023-04-16T14:34:23;14.90;;;10.20;;
61897;SDS011;47850;50.274;18.908;2023-04-16T14:36:51;12.00;;;7.90;;
61897;SDS011;47850;50.274;18.908;2023-04-16T14:39:19;11.50;;;8.10;;
61897;SDS011;47850;50.274;18.908;2023-04-16T14:41:47;10.40;;;7.70;;
61897;SDS011;47850;50.274;18.908;2023-04-16T14:44:15;18.00;;;12.10;;
61897;SDS011;47850;50.274;18.908;2023-04-16T14:46:43;16.60;;;12.70;;
61897;SDS011;47850;50.274;18.908;2023-04-16T14:49:11;12.60;;;7.20;;
61897;SDS011;47850;50.274;18.908;2023-04-16T14:51:39;8.00;;;6.80;;